createdAt,value
2023-02-03T00:04:52.880Z,80.66
2023-02-03T00:09:56.976Z,80.77
2023-02-03T00:15:05.810Z,80.78
2023-02-03T00:20:08.926Z,81.12
2023-02-03T00:25:12.031Z,81.09
2023-02-03T00:30:34.935Z,81.04
2023-02-03T00:35:40.560Z,81.11
2023-02-03T00:40:42.765Z,81.19
2023-02-03T00:45:45.193Z,80.97
2023-02-03T00:50:50.425Z,80.74
2023-02-03T00:55:52.967Z,80.80
2023-02-03T01:01:00.028Z,80.90
2023-02-03T01:06:14.775Z,80.90
2023-02-03T01:11:25.573Z,80.91
2023-02-03T01:16:31.483Z,81.17
2023-02-03T01:21:36.246Z,81.11
2023-02-03T01:26:41.009Z,81.49
2023-02-03T01:31:43.180Z,81.21
2023-02-03T01:36:47.274Z,81.15
2023-02-03T01:41:49.201Z,81.22
2023-02-03T01:46:51.834Z,81.46
2023-02-03T01:51:56.599Z,81.42
2023-02-03T01:57:04.850Z,81.09
2023-02-03T02:02:08.465Z,81.76
2023-02-03T02:07:12.123Z,81.99
2023-02-03T02:12:16.874Z,82.16
2023-02-03T02:17:55.516Z,82.24
2023-02-03T02:23:19.570Z,82.61
2023-02-03T02:28:52.456Z,82.73
2023-02-03T02:34:23.512Z,82.97
2023-02-03T02:39:50.288Z,82.84
2023-02-03T02:45:05.341Z,83.17
2023-02-03T02:50:16.793Z,82.88
2023-02-03T02:55:24.760Z,82.94
2023-02-03T03:00:31.424Z,82.79
2023-02-03T03:05:34.575Z,83.05
2023-02-03T03:10:41.751Z,83.01
2023-02-03T03:15:45.993Z,82.74
2023-02-03T03:20:51.752Z,82.85
2023-02-03T03:26:02.451Z,82.90
2023-02-03T03:31:05.481Z,82.85
2023-02-03T03:36:26.198Z,82.83
2023-02-03T03:41:55.778Z,82.88
2023-02-03T03:47:29.290Z,83.26
2023-02-03T03:52:36.124Z,83.22
2023-02-03T03:57:56.814Z,83.18
2023-02-03T04:03:05.184Z,82.95
2023-02-03T04:08:07.779Z,83.40
2023-02-03T04:13:11.343Z,83.61
2023-02-03T04:18:15.552Z,83.74
2023-02-03T04:23:18.140Z,83.49
2023-02-03T04:28:20.177Z,83.57
2023-02-03T04:33:22.501Z,83.45
2023-02-03T04:38:26.386Z,83.26
2023-02-03T04:43:29.852Z,83.60
2023-02-03T04:48:33.566Z,83.68
2023-02-03T04:53:36.012Z,83.55
2023-02-03T04:58:39.211Z,83.65
2023-02-03T05:03:41.361Z,83.93
2023-02-03T05:08:43.973Z,83.89
2023-02-03T05:13:46.963Z,83.96
2023-02-03T05:18:49.449Z,83.98
2023-02-03T05:23:54.585Z,84.06
2023-02-03T05:28:57.706Z,84.06
2023-02-03T05:34:00.116Z,84.21
2023-02-03T05:39:02.092Z,84.31
2023-02-03T05:44:06.680Z,83.85
2023-02-03T05:49:09.512Z,83.83
2023-02-03T05:54:11.591Z,84.14
2023-02-03T05:59:13.861Z,84.14
2023-02-03T06:04:16.927Z,83.49
2023-02-03T06:09:18.866Z,83.80
2023-02-03T06:14:21.143Z,83.36
2023-02-03T06:19:24.331Z,83.28
2023-02-03T06:24:27.123Z,83.33
2023-02-03T06:29:29.042Z,82.99
2023-02-03T06:34:32.924Z,82.81
2023-02-03T06:39:35.618Z,82.38
2023-02-03T06:44:38.139Z,82.39
2023-02-03T06:49:43.185Z,82.60
2023-02-03T06:54:45.622Z,82.36
2023-02-03T06:59:47.786Z,82.32
2023-02-03T07:04:52.833Z,81.75
2023-02-03T07:09:57.500Z,81.61
2023-02-03T07:14:59.430Z,81.28
2023-02-03T07:20:02.066Z,80.79
2023-02-03T07:25:07.049Z,80.57
2023-02-03T07:30:13.075Z,80.16
2023-02-03T07:35:16.045Z,80.22
2023-02-03T07:40:19.008Z,80.01
2023-02-03T07:45:22.263Z,80.07
2023-02-03T07:50:24.355Z,80.05
2023-02-03T07:55:26.665Z,79.86
2023-02-03T08:00:29.281Z,80.20
2023-02-03T08:05:31.752Z,79.75
2023-02-03T08:10:33.824Z,79.70
2023-02-03T08:15:36.357Z,79.19
2023-02-03T08:20:40.968Z,79.83
2023-02-03T08:25:43.078Z,81.59
2023-02-03T08:30:44.987Z,81.85
2023-02-03T08:35:51.255Z,81.81
2023-02-03T08:40:53.321Z,82.34
2023-02-03T08:45:55.157Z,82.90
2023-02-03T08:51:01.350Z,82.87
2023-02-03T08:56:08.456Z,83.34
2023-02-03T09:01:13.844Z,83.50
2023-02-03T09:06:17.231Z,83.47
2023-02-03T09:11:31.454Z,83.57
2023-02-03T09:16:35.833Z,83.69
2023-02-03T09:21:40.878Z,84.17
2023-02-03T09:26:56.403Z,83.92
2023-02-03T09:32:07.004Z,84.25
2023-02-03T09:37:12.248Z,84.78
2023-02-03T09:43:10.443Z,84.64
2023-02-03T09:48:25.176Z,85.64
2023-02-03T09:53:48.710Z,86.09
2023-02-03T09:58:51.099Z,86.47
2023-02-03T10:04:23.384Z,86.50
2023-02-03T10:09:44.311Z,86.63
2023-02-03T10:15:32.355Z,86.58
2023-02-03T10:20:58.961Z,86.67
2023-02-03T10:26:27.270Z,86.72
2023-02-03T10:31:36.830Z,88.82
2023-02-03T10:37:23.870Z,88.42
2023-02-03T10:42:46.391Z,89.75
2023-02-03T10:47:53.827Z,90.35
2023-02-03T10:53:40.193Z,90.72
2023-02-03T10:58:54.430Z,90.58
2023-02-03T11:04:03.702Z,89.99
2023-02-03T11:09:29.137Z,89.92
2023-02-03T11:14:39.262Z,90.46
2023-02-03T11:19:46.780Z,90.09
2023-02-03T11:24:48.863Z,90.19
2023-02-03T11:30:15.684Z,89.38
2023-02-03T11:35:27.052Z,89.32
2023-02-03T11:40:34.854Z,89.50
2023-02-03T11:45:54.863Z,89.30
2023-02-03T11:51:14.758Z,89.06
2023-02-03T11:56:36.044Z,89.08
2023-02-03T12:02:07.950Z,89.06
2023-02-03T12:07:37.365Z,89.18
2023-02-03T12:13:20.404Z,89.32
2023-02-03T12:18:46.682Z,89.20
2023-02-03T12:24:08.693Z,89.16
2023-02-03T12:29:32.480Z,89.30
2023-02-03T12:34:41.375Z,89.74
2023-02-03T12:39:53.004Z,89.46
2023-02-03T12:45:02.512Z,89.69
2023-02-03T12:50:21.957Z,89.71
2023-02-03T12:55:46.501Z,89.80
2023-02-03T13:01:01.369Z,89.72
2023-02-03T13:06:15.995Z,90.04
2023-02-03T13:11:39.023Z,89.92
2023-02-03T13:16:46.089Z,90.13
2023-02-03T13:21:49.982Z,90.33
2023-02-03T13:27:00.762Z,91.06
2023-02-03T13:32:27.218Z,91.10
2023-02-03T13:37:48.080Z,91.25
2023-02-03T13:43:36.884Z,91.03
2023-02-03T13:48:46.077Z,90.95
2023-02-03T13:53:50.894Z,91.13
2023-02-03T13:59:04.024Z,91.32
2023-02-03T14:04:26.714Z,93.16
2023-02-03T14:09:46.274Z,91.91
2023-02-03T14:15:19.404Z,91.61
2023-02-03T14:20:51.261Z,91.97
2023-02-03T14:26:09.197Z,92.00
2023-02-03T14:31:19.563Z,92.13
2023-02-03T14:36:44.360Z,92.15
2023-02-03T14:42:19.627Z,91.78
2023-02-03T14:48:21.203Z,91.79
2023-02-03T14:53:42.016Z,92.81
2023-02-03T14:59:04.413Z,96.89
2023-02-03T15:04:25.327Z,97.58
2023-02-03T15:09:47.469Z,97.78
2023-02-03T15:14:50.308Z,97.94
2023-02-03T15:19:56.185Z,97.93
2023-02-03T15:25:04.989Z,97.92
2023-02-03T15:30:28.262Z,97.99
2023-02-03T15:35:34.132Z,98.29
2023-02-03T15:40:42.029Z,97.42
2023-02-03T15:45:52.418Z,96.99
2023-02-03T15:51:03.017Z,94.80
2023-02-03T15:56:21.810Z,94.21
2023-02-03T16:01:35.969Z,93.77
2023-02-03T16:06:44.090Z,93.63
2023-02-03T16:12:25.608Z,93.69
2023-02-03T16:17:37.006Z,92.79
2023-02-03T16:22:55.248Z,92.91
2023-02-03T16:28:37.687Z,92.57
2023-02-03T16:34:08.526Z,92.53
2023-02-03T16:39:32.255Z,92.38
2023-02-03T16:44:53.709Z,92.04
2023-02-03T16:50:39.292Z,91.83
2023-02-03T16:55:47.119Z,91.99
2023-02-03T17:00:53.617Z,91.91
2023-02-03T17:06:04.155Z,91.86
2023-02-03T17:11:15.999Z,92.18
2023-02-03T17:16:25.529Z,91.79
2023-02-03T17:21:47.830Z,91.80
2023-02-03T17:27:02.504Z,91.62
2023-02-03T17:32:21.802Z,91.78
2023-02-03T17:37:27.881Z,91.79
2023-02-03T17:53:37.259Z,91.32
2023-02-03T17:58:46.699Z,91.57
2023-02-03T18:04:10.046Z,91.62
2023-02-03T18:09:26.048Z,91.63
2023-02-03T18:14:50.711Z,92.00
2023-02-03T18:20:00.888Z,91.73
2023-02-03T18:25:24.726Z,91.73
2023-02-03T18:30:50.143Z,91.94
2023-02-03T18:36:23.701Z,92.11
2023-02-03T18:41:37.007Z,92.32
2023-02-03T18:47:11.505Z,92.14
2023-02-03T18:52:19.962Z,92.44
2023-02-03T18:57:26.523Z,92.25
2023-02-03T19:02:43.246Z,92.18
2023-02-03T19:07:49.293Z,92.33
2023-02-03T19:12:52.420Z,92.52
2023-02-03T19:17:56.462Z,92.62
2023-02-03T19:23:09.197Z,92.74
2023-02-03T19:28:20.136Z,93.02
2023-02-03T19:33:30.974Z,92.94
2023-02-03T19:38:33.638Z,93.07
2023-02-03T19:43:37.545Z,93.22
2023-02-03T19:48:46.109Z,92.86
2023-02-03T19:53:59.001Z,92.96
2023-02-03T19:59:03.457Z,93.06
2023-02-03T20:04:07.741Z,92.85
2023-02-03T20:09:12.446Z,93.32
2023-02-03T20:14:19.673Z,93.28
2023-02-03T20:19:22.124Z,93.64
2023-02-03T20:24:37.482Z,93.84
2023-02-03T20:29:42.054Z,93.59
2023-02-03T20:34:46.871Z,93.65
2023-02-03T20:39:51.324Z,93.83
2023-02-03T20:44:56.258Z,93.83
2023-02-03T20:49:59.812Z,93.79
2023-02-03T20:55:16.980Z,93.79
2023-02-03T21:00:25.488Z,93.77
2023-02-03T21:05:37.947Z,94.01
2023-02-03T21:10:48.125Z,93.79
2023-02-03T21:15:55.008Z,93.89
2023-02-03T21:20:59.019Z,93.72
2023-02-03T21:26:01.835Z,93.52
2023-02-03T21:31:05.668Z,93.78
2023-02-03T21:36:24.449Z,93.65
2023-02-03T21:41:32.609Z,93.72
2023-02-03T21:46:37.391Z,93.88
2023-02-03T21:51:39.786Z,93.84
2023-02-03T21:56:43.042Z,94.05
2023-02-03T22:01:45.686Z,93.85
2023-02-03T22:06:53.974Z,93.84
2023-02-03T22:12:03.609Z,93.88
2023-02-03T22:17:14.279Z,94.11
2023-02-03T22:22:17.888Z,93.95
2023-02-03T22:27:25.216Z,93.78
2023-02-03T22:32:30.499Z,93.95
2023-02-03T22:37:36.105Z,93.89
2023-02-03T22:42:39.047Z,93.77
2023-02-03T22:47:42.789Z,93.98
2023-02-03T22:52:51.326Z,93.69
2023-02-03T22:58:02.357Z,93.98
2023-02-03T23:03:16.776Z,94.01
2023-02-03T23:08:21.643Z,94.24
2023-02-03T23:13:49.724Z,93.95
2023-02-03T23:19:03.635Z,93.77
2023-02-03T23:24:22.096Z,93.94
2023-02-03T23:29:33.007Z,93.87
2023-02-03T23:35:08.509Z,93.91
2023-02-03T23:40:15.870Z,94.02
2023-02-03T23:45:37.962Z,93.75
2023-02-03T23:50:50.069Z,93.79
2023-02-03T23:55:57.070Z,93.91
